Aviation Forecast PDF Print E-mail

 
met_logo

NATIONAL METEOROLOGICAL SERVICE OF BELIZE

Area Forecast for the Country of Belize


For the period from:

1200  03  MAY  2015

to

2400  03  MAY  2015

All Heights in the forecast are above sea level. PS= Positive, MS= Minus. All times are UTC.


A.

SPECIAL FEATURES of the METEOROLOGICAL SITUATION

 RELATIVELY MOIST NORTHEASTERLY AIRFLOW PREVAILS.

B.

HEIGHT (Ft)

WIND (True Degrees and Knots)

TEMPERATURE (°C)

Surface

33005 BECMG 05010

PS29-31

2,000

06020

PS19

5,000

06010

PS16

10,000

26505

PS08


C.

CLOUDS (Amount, Type, Ceiling and Top(optional))

 

 SCT/BKN CU BASES 1,500-2,500FT. TOPS 8,000-10,000FT. 

 SCT/BKN SC BASES LAYERED 3,500-5,000FT.

 


D.

SURFACE VISIBILITY:  GREATER THAN 10KM. REDUCED TO 2-8KM IN SHRA  AND 500M IN HILL FOG.


E.

WEATHER: MOSTLY CLOUDY WITH A FEW SHOWERS MAINLY OVER SOUTHERN  AND COASTAL AREAS AT FIRST, THEN DECREASING. HILL FOG INLAND.


Remarks, Warnings, Turbulence

Barometric Changes

LOW CLOUDS COVERING HILLS;  

DIURNAL (RISING)

G.

OUTLOOK:

TO 1200  4TH MAY-

PARTLY CLOUDY WITH ISOLATED SHOWERS.

H.

TAF  MZBZ

031105Z 0312/0412 32005KT 9999 SCT020 BKN040 PROB30 TEMPO 0312/0315 5000 RA BKN015 BECMG 0313/0315 05010KT=

I.

Meteorological Office:

BELIZE

Issued at:

1135 03 MAY 2015

Forecaster:

Wellington